Shenzhen Bao'an International Airport
ZGSZ : now visible

Airfield :











YOU CAN JOIN US ON...

 
LOGIN :

Register | Disclaimer

   EN    FR    IT 

 









Legend :    VFR   Marginal VFR   IFR   Intensive IFR   Very Intensive IFR
Visi :
Ceiling :
>= 8 km
>= 3000ft
5 to 8 km
1000 to 3000 ft
1500m to 5 km
500 to 1000 ft
800 to 1500m
200 to 500 ft
< 800m
< 200 ft
Symbols :   Thunderstorms  Fog  Heavy snow  Heavy precipitations  Wind > 20 kt






- Airport Elevation : 13 ft
- IATA code : SZX


ZGSZ - Shenzhen Bao'an International

CURRENT METAR :
  • 240900Z VRB01MPS 5000 BR SCT026 BKN040 26/24 Q1007 NOSIG

EXPIRED METARs :
  • 240800Z 18002MPS 5000 BR BKN040 27/24 Q1007 NOSIG
  • 240700Z 22002MPS 6000 BKN040 27/24 Q1007 NOSIG
  • 240600Z 21002MPS 2800 BR OVC033 28/24 Q1008 BECMG AT0630 3500
  • 240500Z 24002MPS 3500 BR FEW016 OVC040 27/24 Q1009 BECMG AT0530 2900

TAF TAF ZGSZ
Valid from the 24 at 06:00 until the 25 at 06:00 UTC


240318Z 2406/2506 18004MPS 6000 BKN030 TX28/2406Z TN24/2422Z
TEMPO 2406/2412 SHRA FEW010 FEW025CB BKN030
TEMPO 2420/2424 SHRA FEW010 FEW025CB BKN030
TEMPO 2500/2506 TSRA SCT010 FEW020CB BKN030
ZGZU FIR / Asia



MET'MAP, your aeronautical weather chart ! - Copyright ORBIFLY December 2007 - Disclaimer

ORBIFLY MET'MAP TEAM :

Programming & Development : Alexandra Zaïnal
Original concept : Baudouin d'Aumeries
Technical & hardware support : Manuel Goepfert
Assistance : Marc-Olivier Méhu




SOURCES & CREDITS :

   NOAA       Earth
Advisory